Flight Track Log - Related Links

Times and Time Zones

All times are in EDT time to prevent confusion due to time zone crossing. See the DAL5846 flight status page for this flight to view local times or setup timezone preferences in your user account.

Time Position Orientation Groundspeed Altitude Reporting Facility
EDT Latitude Longitude Course Direction KTS MPH feet Rate Location/Type
Sun 06:26:24 PM 33.9450 -118.4597 301° West 157 181 1,900  Level Los Angeles Center
Sun 06:27:26 PM 33.9378 -118.5283 263° West 206 237 3,800 1,984 Climbing Los Angeles Center
Sun 06:28:28 PM 33.9283 -118.6206 263° West 260 299 6,000 2,274 Climbing Los Angeles Center
Sun 06:29:00 PM 34.2154 -118.6858 270° West  Level Estimated
Sun 06:29:30 PM 33.9169 -118.7172 262° West 289 333 8,500  Level Los Angeles Center
Sun 06:30:00 PM 34.2835 -118.7556 320° Northwest  Level Estimated
Sun 06:30:32 PM 33.9058 -118.8133 262° West 290 334 10,700  Level Los Angeles Center
Sun 06:31:00 PM 34.3516 -118.8254 298° West  Level Estimated
Sun 06:31:35 PM 33.9339 -118.9189 288° West 339 390 11,900  Level Los Angeles Center
Sun 06:32:00 PM 34.4226 -118.8984 301° West  Level Estimated
Sun 06:32:37 PM 33.9981 -119.0100 310° West 353 406 14,000  Level Los Angeles Center
Sun 06:33:39 PM 34.0633 -119.1072 309° West 371 427 15,900 2,081 Climbing Los Angeles Center
Sun 06:34:41 PM 34.1439 -119.2267 309° West 383 441 18,300 1,984 Climbing Los Angeles Center
Sun 06:35:43 PM 34.2106 -119.3272 309° West 383 441 20,000 1,452 Climbing Los Angeles Center
Sun 06:36:45 PM 34.2786 -119.4292 309° West 390 449 21,300 1,258 Climbing Los Angeles Center
Sun 06:37:47 PM 34.3483 -119.5339 309° West 398 458 22,600 1,258 Climbing Los Angeles Center
Sun 06:38:49 PM 34.4208 -119.6419 309° West 410 472 23,900 1,210 Climbing Los Angeles Center
Sun 06:39:51 PM 34.4942 -119.7503 309° West 415 478 25,100 1,210 Climbing Los Angeles Center
Sun 06:40:53 PM 34.5956 -119.8658 317° Northwest 418 481 26,400 1,113 Climbing Los Angeles Center
Sun 06:41:55 PM 34.6764 -119.9511 319° Northwest 431 496 27,400 1,065 Climbing Los Angeles Center
Sun 06:42:57 PM 34.7853 -120.0700 318° Northwest 439 505 28,600 1,210 Climbing Los Angeles Center
Sun 06:43:59 PM 34.8725 -120.1664 318° Northwest 444 511 29,900 672 Climbing Los Angeles Center
Sun 06:45:02 PM 34.9633 -120.2661 318° Northwest 444 511 30,000 48 Climbing Los Angeles Center
Sun 06:46:04 PM 35.0522 -120.3664 317° Northwest 439 505 30,000  Level Los Angeles Center
Sun 06:47:06 PM 35.1594 -120.4853 318° Northwest 438 504 30,000  Level Los Angeles Center
Sun 06:48:08 PM 35.2497 -120.5864 318° Northwest 443 510 30,000  Level Los Angeles Center
Sun 06:49:10 PM 35.3392 -120.6869 317° Northwest 441 507 30,000  Level Los Angeles Center
Sun 06:50:12 PM 35.4319 -120.7814 320° Northwest 436 502 30,000  Level Los Angeles Center
Sun 06:51:14 PM 35.5294 -120.8650 325° Northwest 430 495 30,000  Level Los Angeles Center
Sun 06:52:16 PM 35.6414 -120.9647 324° Northwest 429 494 30,000  Level Los Angeles Center
Sun 06:53:18 PM 35.7353 -121.0494 324° Northwest 421 484 30,000  Level Los Angeles Center
Sun 06:54:20 PM 35.8319 -121.1356 324° Northwest 425 489 30,000  Level Los Angeles Center
Sun 06:55:22 PM 35.9272 -121.2211 324° Northwest 425 489 30,000  Level Los Angeles Center
Sun 06:56:49 PM 36.0625 -121.3403 325° Northwest 422 486 30,000  Level Oakland Center
Sun 06:57:50 PM 36.1772 -121.4447 324° Northwest 425 489 30,000 -829 Level Oakland Center
Sun 06:58:52 PM 36.2722 -121.5319 323° Northwest 425 489 28,300 -1,887 Descending Oakland Center
Sun 06:59:54 PM 36.3667 -121.6142 325° Northwest 416 479 26,100 -2,098 Descending Oakland Center
Sun 07:00:55 PM 36.4553 -121.6972 323° Northwest 401 461 24,000 -2,139 Descending Oakland Center
Sun 07:01:49 PM 36.5500 -121.7833 324° Northwest 403 464 22,000 -2,105 Descending Northern Cal TRACON
Sun 07:02:49 PM 36.6333 -121.8500 327° Northwest 390 449 20,000 -1,500 Descending Northern Cal TRACON
Sun 07:03:49 PM 36.7167 -121.9333 321° Northwest 384 442 19,000 -1,476 Descending Northern Cal TRACON
Sun 07:04:55 PM 36.8167 -121.9833 338° Northwest 372 428 16,900 -1,985 Descending Northern Cal TRACON
Sun 07:06:02 PM 36.9339 -122.0144 348° North 366 421 14,600 -1,953 Descending Oakland Center
Sun 07:07:04 PM 37.0303 -122.0417 347° North 359 413 12,700 -1,756 Descending Oakland Center
Sun 07:08:05 PM 37.1214 -122.0647 349° North 343 395 11,000 -1,415 Descending Oakland Center
Sun 07:09:07 PM 37.2031 -122.0853 349° North 312 359 9,800 -1,073 Descending Oakland Center
Sun 07:10:08 PM 37.2719 -122.1042 348° North 263 303 8,800 -1,082 Descending Oakland Center
Sun 07:11:09 PM 37.3400 -122.1219 348° North 254 292 7,600 -1,290 Descending Oakland Center
Sun 07:11:55 PM 37.4000 -122.1333 351° North 244 281 6,500 -1,132 Descending Northern Cal TRACON
Sun 07:12:55 PM 37.4667 -122.1500 349° North 220 253 5,600 -1,050 Descending Northern Cal TRACON
Sun 07:13:55 PM 37.5167 -122.1667 345° North 193 222 4,400 -1,300 Descending Northern Cal TRACON
Sun 07:14:55 PM 37.5500 -122.2167 310° West 192 221 3,000 -1,450 Descending Northern Cal TRACON
Sun 07:15:55 PM 37.5667 -122.2667 293° West 181 208 1,500 -1,150 Descending Northern Cal TRACON
Sun 07:16:55 PM 37.6000 -122.3167 310° West 142 163 700 -500 Descending Northern Cal TRACON
Sun 07:18:19 PM 37.6161 -122.3686 291° West 155 178 300 -286 Descending Oakland Center

Login

Don't have an account? Register now (free) for customized features, flight alerts, and more!